Time;durP1;ratioP1;P1;durP2;ratioP2;P2;SDS_P1;SDS_P2;PMS_P1;PMS_P2;Temp;Humidity;BMP_temperature;BMP_pressure;BME280_temperature;BME280_humidity;BME280_pressure;Samples;Min_cycle;Max_cycle;Signal;HPM_P1;HPM_P2
2023/07/23 00:00:16;;;;;;;4.53;3.05;;;;;;;;;;5013659;28;20037;-67
2023/07/23 00:02:42;;;;;;;5.05;3.33;;;;;;;;;;5025421;28;20095;-67
2023/07/23 00:05:07;;;;;;;5.40;3.17;;;;;;;;;;5021687;28;20052;-67
2023/07/23 00:07:33;;;;;;;4.72;3.13;;;;;;;;;;5011954;28;20029;-67
2023/07/23 00:09:58;;;;;;;5.80;3.08;;;;;;;;;;5002256;28;20424;-68
2023/07/23 00:12:23;;;;;;;4.90;3.28;;;;;;;;;;5017580;28;20711;-67
2023/07/23 00:14:49;;;;;;;5.43;2.95;;;;;;;;;;5022259;28;20047;-67
2023/07/23 00:17:14;;;;;;;4.32;2.80;;;;;;;;;;5008095;28;20144;-68
2023/07/23 00:19:40;;;;;;;4.25;2.83;;;;;;;;;;5012141;28;20045;-68
2023/07/23 00:22:05;;;;;;;5.38;2.67;;;;;;;;;;5007545;28;20038;-68
2023/07/23 00:24:30;;;;;;;5.35;3.03;;;;;;;;;;5012842;28;20029;-67
2023/07/23 00:26:56;;;;;;;4.95;2.55;;;;;;;;;;5023313;28;20044;-67
2023/07/23 00:29:21;;;;;;;4.40;2.58;;;;;;;;;;5021642;28;20041;-67
2023/07/23 00:31:47;;;;;;;4.15;2.90;;;;;;;;;;5022061;28;20076;-67
2023/07/23 00:34:12;;;;;;;8.23;3.30;;;;;;;;;;5027623;28;20127;-67
2023/07/23 00:36:37;;;;;;;6.40;3.80;;;;;;;;;;5029356;28;20040;-67
2023/07/23 00:39:05;;;;;;;4.43;2.65;;;;;;;;;;5009569;28;20521;-67
2023/07/23 00:41:30;;;;;;;3.97;2.88;;;;;;;;;;5027399;28;20034;-67
2023/07/23 00:43:56;;;;;;;4.25;2.70;;;;;;;;;;5010165;28;23577;-67
2023/07/23 00:46:21;;;;;;;5.00;2.92;;;;;;;;;;5010825;28;20406;-67
2023/07/23 00:48:47;;;;;;;4.13;2.78;;;;;;;;;;5016226;28;20049;-68
2023/07/23 00:51:12;;;;;;;4.25;2.60;;;;;;;;;;5025970;28;20037;-68
2023/07/23 00:53:38;;;;;;;5.18;2.97;;;;;;;;;;5006855;28;20034;-67
2023/07/23 00:56:03;;;;;;;8.40;3.88;;;;;;;;;;5015178;28;20044;-67
2023/07/23 00:58:29;;;;;;;4.30;2.58;;;;;;;;;;5015724;28;20037;-67
2023/07/23 01:00:54;;;;;;;4.50;2.75;;;;;;;;;;5021222;28;20037;-67
2023/07/23 01:03:20;;;;;;;5.47;2.92;;;;;;;;;;5021216;28;20042;-67
2023/07/23 01:05:47;;;;;;;3.80;2.53;;;;;;;;;;5018445;28;20036;-67
2023/07/23 01:08:12;;;;;;;4.82;2.75;;;;;;;;;;5020160;28;20093;-67
2023/07/23 01:10:39;;;;;;;4.03;2.90;;;;;;;;;;5027219;28;20033;-68
2023/07/23 01:13:06;;;;;;;4.45;2.60;;;;;;;;;;5024921;28;20072;-67
2023/07/23 01:15:32;;;;;;;6.85;2.90;;;;;;;;;;5020687;28;20714;-67
2023/07/23 01:17:59;;;;;;;7.22;3.33;;;;;;;;;;5018790;28;20160;-67
2023/07/23 01:20:25;;;;;;;5.50;2.90;;;;;;;;;;5013711;28;20037;-67
2023/07/23 01:22:50;;;;;;;4.03;2.70;;;;;;;;;;5022556;28;20038;-67
2023/07/23 01:25:15;;;;;;;5.85;2.85;;;;;;;;;;5017034;28;20120;-67
2023/07/23 01:27:41;;;;;;;7.57;2.95;;;;;;;;;;5013490;28;20056;-67
2023/07/23 01:30:10;;;;;;;5.65;3.35;;;;;;;;;;5021982;28;20030;-67
2023/07/23 01:32:36;;;;;;;4.07;2.72;;;;;;;;;;5023553;28;20044;-67
2023/07/23 01:35:11;;;;;;;4.57;2.88;;;;;;;;;;5014007;28;20036;-67
2023/07/23 01:37:36;;;;;;;5.20;3.05;;;;;;;;;;5019244;28;20052;-67
2023/07/23 01:40:02;;;;;;;4.80;2.92;;;;;;;;;;5018863;28;20041;-67
2023/07/23 01:42:28;;;;;;;3.75;2.97;;;;;;;;;;5021863;28;20110;-67
2023/07/23 01:44:53;;;;;;;3.95;2.65;;;;;;;;;;5019784;28;20136;-67
2023/07/23 01:47:19;;;;;;;6.00;2.95;;;;;;;;;;5011189;28;20045;-67
2023/07/23 01:49:44;;;;;;;5.13;2.70;;;;;;;;;;5025081;28;20220;-67
2023/07/23 01:52:09;;;;;;;4.10;2.88;;;;;;;;;;5024200;28;20421;-67
2023/07/23 01:54:35;;;;;;;4.78;2.70;;;;;;;;;;5018215;28;20037;-67
2023/07/23 01:57:02;;;;;;;4.82;3.10;;;;;;;;;;5018158;28;20029;-67
2023/07/23 01:59:28;;;;;;;6.30;3.47;;;;;;;;;;5018199;28;20069;-67
2023/07/23 02:01:53;;;;;;;3.90;2.50;;;;;;;;;;5008357;28;20045;-67
2023/07/23 02:04:19;;;;;;;6.60;3.15;;;;;;;;;;5018905;28;20046;-68
2023/07/23 02:06:44;;;;;;;5.18;2.53;;;;;;;;;;5026545;28;20071;-67
2023/07/23 02:09:09;;;;;;;6.90;3.05;;;;;;;;;;5014683;28;20033;-67
2023/07/23 02:11:35;;;;;;;4.90;2.90;;;;;;;;;;5025002;28;20102;-67
2023/07/23 02:14:00;;;;;;;5.63;2.70;;;;;;;;;;5018908;28;20046;-67
2023/07/23 02:16:25;;;;;;;4.78;2.80;;;;;;;;;;5007572;28;20910;-68
2023/07/23 02:18:51;;;;;;;4.13;2.55;;;;;;;;;;5018081;28;20049;-67
2023/07/23 02:21:16;;;;;;;4.20;2.67;;;;;;;;;;5021603;28;20036;-67
2023/07/23 02:23:44;;;;;;;5.32;2.78;;;;;;;;;;5023760;28;20505;-67
2023/07/23 02:26:09;;;;;;;4.68;2.97;;;;;;;;;;5019194;28;20076;-67
2023/07/23 02:28:35;;;;;;;4.32;2.58;;;;;;;;;;5023448;28;20092;-67
2023/07/23 02:31:00;;;;;;;4.57;2.83;;;;;;;;;;5015781;28;20031;-67
2023/07/23 02:33:26;;;;;;;4.28;2.55;;;;;;;;;;5016645;28;20037;-67
2023/07/23 02:35:51;;;;;;;4.32;2.83;;;;;;;;;;5012773;28;20937;-67
2023/07/23 02:38:17;;;;;;;5.90;3.08;;;;;;;;;;5016509;28;20053;-67
2023/07/23 02:40:42;;;;;;;4.68;2.78;;;;;;;;;;5016813;28;20156;-67
2023/07/23 02:43:12;;;;;;;4.35;2.95;;;;;;;;;;5016866;28;20041;-67
2023/07/23 02:45:40;;;;;;;4.97;2.63;;;;;;;;;;5015952;28;20051;-67
2023/07/23 02:48:07;;;;;;;5.53;3.30;;;;;;;;;;5017197;28;20456;-67
2023/07/23 02:50:32;;;;;;;7.05;2.90;;;;;;;;;;5026850;28;20119;-67
2023/07/23 02:52:57;;;;;;;5.43;2.95;;;;;;;;;;5018797;28;20084;-67
2023/07/23 02:55:25;;;;;;;4.38;2.90;;;;;;;;;;5021595;28;20048;-67
2023/07/23 02:57:51;;;;;;;4.88;2.70;;;;;;;;;;5002307;28;20049;-67
2023/07/23 03:00:18;;;;;;;4.40;2.63;;;;;;;;;;5017959;28;20103;-67
2023/07/23 03:02:45;;;;;;;4.93;3.20;;;;;;;;;;5024732;28;20029;-67
2023/07/23 03:05:11;;;;;;;3.75;2.72;;;;;;;;;;5017046;28;20061;-67
2023/07/23 03:07:36;;;;;;;4.25;2.90;;;;;;;;;;5017221;28;20071;-66
2023/07/23 03:10:03;;;;;;;6.25;3.00;;;;;;;;;;5020658;28;20041;-64
2023/07/23 03:12:28;;;;;;;4.63;2.90;;;;;;;;;;5013890;28;20046;-65
2023/07/23 03:14:54;;;;;;;4.72;2.95;;;;;;;;;;5014603;28;20056;-65
2023/07/23 03:17:19;;;;;;;6.22;3.28;;;;;;;;;;5017485;28;20068;-66
2023/07/23 03:19:44;;;;;;;4.55;2.90;;;;;;;;;;5012358;28;20038;-66
2023/07/23 03:22:10;;;;;;;5.97;3.22;;;;;;;;;;5019414;28;20041;-65
2023/07/23 03:24:35;;;;;;;4.25;2.83;;;;;;;;;;5022937;28;20053;-66
2023/07/23 03:27:00;;;;;;;4.88;3.22;;;;;;;;;;4998135;28;20027;-65
2023/07/23 03:29:26;;;;;;;7.43;3.35;;;;;;;;;;5002173;28;20037;-64
2023/07/23 03:31:51;;;;;;;5.75;3.00;;;;;;;;;;5019079;28;20045;-66
2023/07/23 03:34:17;;;;;;;7.35;3.40;;;;;;;;;;5018610;28;20120;-66
2023/07/23 03:36:42;;;;;;;4.85;2.97;;;;;;;;;;5019361;28;20091;-65
2023/07/23 03:39:07;;;;;;;4.60;3.40;;;;;;;;;;4995349;28;20037;-67
2023/07/23 03:41:33;;;;;;;6.13;3.83;;;;;;;;;;5016825;28;20074;-65
2023/07/23 03:43:58;;;;;;;5.13;3.08;;;;;;;;;;4996077;28;20116;-65
2023/07/23 03:46:23;;;;;;;5.25;3.08;;;;;;;;;;5019494;28;20048;-66
2023/07/23 03:48:49;;;;;;;7.05;3.65;;;;;;;;;;5017429;28;20938;-65
2023/07/23 03:51:15;;;;;;;4.40;3.00;;;;;;;;;;5011243;28;20050;-65
2023/07/23 03:53:41;;;;;;;4.93;2.70;;;;;;;;;;5008791;28;20157;-66
2023/07/23 03:56:06;;;;;;;3.33;2.10;;;;;;;;;;5024434;28;20116;-65
2023/07/23 03:58:31;;;;;;;4.63;3.00;;;;;;;;;;5011037;28;20037;-66
2023/07/23 04:00:57;;;;;;;4.40;2.85;;;;;;;;;;5009748;28;20123;-65
2023/07/23 04:03:22;;;;;;;4.63;2.92;;;;;;;;;;5022505;28;20037;-66
2023/07/23 04:05:47;;;;;;;5.95;3.65;;;;;;;;;;5031034;28;20065;-66
2023/07/23 04:08:13;;;;;;;4.28;2.92;;;;;;;;;;5016021;28;20494;-65
2023/07/23 04:10:38;;;;;;;4.68;3.20;;;;;;;;;;5020864;28;20033;-65
2023/07/23 04:13:04;;;;;;;6.38;3.33;;;;;;;;;;5025578;28;20033;-66
2023/07/23 04:15:31;;;;;;;5.13;2.95;;;;;;;;;;5015294;28;20044;-66
2023/07/23 04:17:56;;;;;;;5.32;3.17;;;;;;;;;;5025043;28;20068;-65
2023/07/23 04:20:21;;;;;;;5.95;2.75;;;;;;;;;;5022316;28;20075;-66
2023/07/23 04:22:47;;;;;;;4.40;2.92;;;;;;;;;;5015052;28;20040;-66
2023/07/23 04:25:12;;;;;;;4.20;3.00;;;;;;;;;;5026141;28;20513;-65
2023/07/23 04:27:37;;;;;;;4.63;2.78;;;;;;;;;;5026925;28;20041;-65
2023/07/23 04:30:03;;;;;;;4.30;2.97;;;;;;;;;;5026340;28;20064;-65
2023/07/23 04:32:28;;;;;;;4.13;3.10;;;;;;;;;;5020721;28;20065;-65
2023/07/23 04:34:54;;;;;;;6.45;3.25;;;;;;;;;;5023062;28;20049;-65
2023/07/23 04:37:19;;;;;;;4.25;3.08;;;;;;;;;;5016420;28;20694;-64
2023/07/23 04:39:44;;;;;;;4.53;3.40;;;;;;;;;;5027317;28;20605;-64
2023/07/23 04:42:10;;;;;;;5.85;3.30;;;;;;;;;;5017206;28;20129;-64
2023/07/23 04:44:35;;;;;;;4.85;3.35;;;;;;;;;;5025053;28;20037;-65
2023/07/23 04:47:01;;;;;;;6.28;3.72;;;;;;;;;;5020356;28;20497;-65
2023/07/23 04:49:26;;;;;;;5.28;3.25;;;;;;;;;;5020096;28;20075;-66
2023/07/23 04:51:51;;;;;;;5.60;3.53;;;;;;;;;;5013058;28;20047;-66
2023/07/23 04:54:17;;;;;;;6.40;3.47;;;;;;;;;;5019440;28;20096;-66
2023/07/23 04:56:42;;;;;;;5.82;3.53;;;;;;;;;;5008487;28;20069;-66
2023/07/23 04:59:07;;;;;;;4.72;3.50;;;;;;;;;;5012881;28;20061;-66
2023/07/23 05:01:33;;;;;;;5.32;3.50;;;;;;;;;;5024120;28;20074;-66
2023/07/23 05:03:58;;;;;;;4.78;3.58;;;;;;;;;;5026523;28;20041;-66
2023/07/23 05:06:24;;;;;;;5.03;3.13;;;;;;;;;;5013717;28;20125;-66
2023/07/23 05:08:49;;;;;;;4.60;2.70;;;;;;;;;;5025752;28;20060;-66
2023/07/23 05:11:14;;;;;;;4.32;3.30;;;;;;;;;;5024071;28;20033;-66
2023/07/23 05:13:40;;;;;;;5.85;3.70;;;;;;;;;;5016983;28;20029;-66
2023/07/23 05:16:05;;;;;;;4.47;3.28;;;;;;;;;;5019431;28;20110;-66
2023/07/23 05:18:31;;;;;;;3.13;2.15;;;;;;;;;;5022022;28;20048;-66
2023/07/23 05:20:57;;;;;;;5.45;3.22;;;;;;;;;;5017140;28;20062;-66
2023/07/23 05:23:22;;;;;;;3.92;3.05;;;;;;;;;;5018995;28;20106;-66
2023/07/23 05:25:48;;;;;;;4.70;3.28;;;;;;;;;;5010938;28;20048;-66
2023/07/23 05:28:14;;;;;;;7.22;3.15;;;;;;;;;;5017248;28;20033;-66
2023/07/23 05:30:39;;;;;;;4.65;2.65;;;;;;;;;;5023175;28;20044;-66
2023/07/23 05:33:05;;;;;;;4.57;3.25;;;;;;;;;;5012420;28;20124;-65
2023/07/23 05:35:30;;;;;;;4.05;2.63;;;;;;;;;;5024316;28;20041;-66
2023/07/23 05:37:56;;;;;;;2.88;1.50;;;;;;;;;;5022943;28;20146;-65
2023/07/23 05:40:22;;;;;;;2.80;1.63;;;;;;;;;;5012304;28;20177;-66
2023/07/23 05:42:47;;;;;;;2.03;1.40;;;;;;;;;;5014402;28;20544;-65
2023/07/23 05:45:12;;;;;;;3.85;2.65;;;;;;;;;;5017290;28;20057;-65
2023/07/23 05:47:38;;;;;;;5.03;3.45;;;;;;;;;;5013019;28;20040;-66
2023/07/23 05:50:04;;;;;;;3.75;2.20;;;;;;;;;;5021444;28;20551;-66
2023/07/23 05:52:29;;;;;;;4.53;2.95;;;;;;;;;;5024216;28;20044;-64
2023/07/23 05:54:54;;;;;;;4.90;2.80;;;;;;;;;;5018827;28;20090;-64
2023/07/23 05:57:20;;;;;;;5.25;3.33;;;;;;;;;;5018913;28;20761;-64
2023/07/23 05:59:45;;;;;;;4.60;3.20;;;;;;;;;;5023384;28;20074;-64
2023/07/23 06:02:10;;;;;;;6.78;3.47;;;;;;;;;;5006490;28;20498;-64
2023/07/23 06:04:38;;;;;;;7.40;3.80;;;;;;;;;;5017339;28;20092;-64
2023/07/23 06:07:04;;;;;;;4.00;2.42;;;;;;;;;;5006498;28;20046;-64
2023/07/23 06:09:29;;;;;;;3.85;2.22;;;;;;;;;;5021862;28;20057;-64
2023/07/23 06:11:55;;;;;;;5.70;3.30;;;;;;;;;;5018242;28;20073;-64
2023/07/23 06:14:20;;;;;;;5.75;3.40;;;;;;;;;;5015175;28;20029;-64
2023/07/23 06:16:46;;;;;;;3.58;2.40;;;;;;;;;;5005278;28;20046;-64
2023/07/23 06:19:11;;;;;;;3.35;2.53;;;;;;;;;;4997764;28;20041;-64
2023/07/23 06:21:36;;;;;;;3.67;2.58;;;;;;;;;;5019853;28;20033;-64
2023/07/23 06:24:02;;;;;;;5.30;3.63;;;;;;;;;;5018374;28;20041;-64
2023/07/23 06:26:28;;;;;;;5.65;2.78;;;;;;;;;;5017093;28;20498;-64
2023/07/23 06:28:53;;;;;;;4.35;2.75;;;;;;;;;;5014000;28;20456;-64
2023/07/23 06:31:19;;;;;;;7.07;2.85;;;;;;;;;;5008035;28;20052;-64
2023/07/23 06:33:44;;;;;;;5.00;2.55;;;;;;;;;;5021449;28;20045;-65
2023/07/23 06:36:10;;;;;;;3.85;2.00;;;;;;;;;;5016471;28;20057;-64
2023/07/23 06:38:35;;;;;;;2.53;1.50;;;;;;;;;;5022742;28;20053;-64
2023/07/23 06:41:01;;;;;;;5.72;3.15;;;;;;;;;;5021524;28;20033;-65
2023/07/23 06:43:26;;;;;;;5.47;3.47;;;;;;;;;;5016976;28;20114;-65
2023/07/23 06:45:52;;;;;;;4.63;2.90;;;;;;;;;;5008800;28;20045;-65
2023/07/23 06:48:20;;;;;;;5.88;3.60;;;;;;;;;;5017893;28;20029;-64
2023/07/23 06:50:46;;;;;;;4.95;2.97;;;;;;;;;;5023133;28;20116;-65
2023/07/23 06:53:12;;;;;;;3.35;2.08;;;;;;;;;;5018783;28;20025;-68
2023/07/23 06:55:58;;;;;;;4.93;3.35;;;;;;;;;;5019165;28;20144;-64
2023/07/23 06:58:24;;;;;;;5.13;2.85;;;;;;;;;;5003562;28;20047;-65
2023/07/23 07:00:49;;;;;;;4.63;3.03;;;;;;;;;;5010820;28;20045;-66
2023/07/23 07:03:14;;;;;;;3.78;2.13;;;;;;;;;;5017552;28;20041;-67
2023/07/23 07:05:40;;;;;;;6.82;2.72;;;;;;;;;;5026241;28;20037;-66
2023/07/23 07:08:05;;;;;;;5.72;3.95;;;;;;;;;;5000679;28;20402;-65
2023/07/23 07:10:31;;;;;;;4.25;2.83;;;;;;;;;;4996560;28;20472;-64
2023/07/23 07:12:56;;;;;;;6.07;3.45;;;;;;;;;;4992201;28;20041;-65
2023/07/23 07:15:21;;;;;;;4.30;2.70;;;;;;;;;;4994274;28;20446;-65
2023/07/23 07:17:47;;;;;;;4.70;2.63;;;;;;;;;;4996276;28;20096;-65
2023/07/23 07:20:12;;;;;;;3.83;2.50;;;;;;;;;;4989229;28;20383;-65
2023/07/23 07:22:37;;;;;;;4.53;2.90;;;;;;;;;;4987440;28;20037;-65
2023/07/23 07:25:03;;;;;;;4.85;3.22;;;;;;;;;;4991258;28;20159;-65
2023/07/23 07:27:28;;;;;;;2.60;1.73;;;;;;;;;;4998562;28;20033;-65
2023/07/23 07:29:54;;;;;;;6.47;3.28;;;;;;;;;;4986621;28;20030;-65
2023/07/23 07:32:19;;;;;;;5.18;3.03;;;;;;;;;;4989016;28;20442;-65
2023/07/23 07:34:44;;;;;;;4.00;2.85;;;;;;;;;;4997698;28;20529;-65
2023/07/23 07:37:10;;;;;;;4.63;2.88;;;;;;;;;;4996565;28;20041;-65
2023/07/23 07:39:35;;;;;;;6.70;3.28;;;;;;;;;;4991451;28;20026;-65
2023/07/23 07:42:01;;;;;;;4.78;2.53;;;;;;;;;;4992361;28;20360;-65
2023/07/23 07:44:28;;;;;;;4.70;2.72;;;;;;;;;;4993159;28;20478;-67
2023/07/23 07:46:53;;;;;;;4.63;3.00;;;;;;;;;;4992994;28;20480;-67
2023/07/23 07:49:18;;;;;;;5.75;3.22;;;;;;;;;;4990262;28;20117;-65
2023/07/23 07:51:47;;;;;;;4.93;2.88;;;;;;;;;;4990285;28;20383;-66
2023/07/23 07:54:12;;;;;;;7.45;3.58;;;;;;;;;;4989881;28;20034;-65
2023/07/23 07:56:38;;;;;;;4.47;2.90;;;;;;;;;;4993313;28;20025;-65
2023/07/23 07:59:05;;;;;;;5.55;3.25;;;;;;;;;;4991853;28;20028;-65
2023/07/23 08:01:30;;;;;;;5.85;2.53;;;;;;;;;;4989915;28;20017;-65
2023/07/23 08:03:56;;;;;;;4.07;2.42;;;;;;;;;;4987195;28;20072;-65
2023/07/23 08:06:22;;;;;;;5.72;3.20;;;;;;;;;;4992441;28;20026;-65
2023/07/23 08:08:50;;;;;;;4.80;2.78;;;;;;;;;;4988481;28;20105;-65
2023/07/23 08:11:16;;;;;;;4.20;2.88;;;;;;;;;;4989469;28;20026;-65
2023/07/23 08:13:42;;;;;;;4.80;3.30;;;;;;;;;;4987497;28;20031;-65
2023/07/23 08:16:08;;;;;;;5.88;2.75;;;;;;;;;;4989853;28;20057;-65
2023/07/23 08:18:34;;;;;;;5.10;2.50;;;;;;;;;;4985367;28;20014;-65
2023/07/23 08:20:59;;;;;;;4.03;2.30;;;;;;;;;;4991006;28;20501;-65
2023/07/23 08:23:28;;;;;;;3.75;2.90;;;;;;;;;;4991336;28;20514;-65
2023/07/23 08:25:57;;;;;;;3.22;2.35;;;;;;;;;;4989607;28;20034;-65
2023/07/23 08:28:29;;;;;;;5.13;3.08;;;;;;;;;;4988953;28;20056;-65
2023/07/23 08:30:56;;;;;;;4.00;2.70;;;;;;;;;;4992633;28;20022;-65
2023/07/23 08:33:24;;;;;;;5.43;2.80;;;;;;;;;;4998552;28;20037;-65
2023/07/23 08:35:50;;;;;;;5.28;2.90;;;;;;;;;;4992440;28;20030;-65
2023/07/23 08:38:16;;;;;;;3.95;2.40;;;;;;;;;;4989408;28;20037;-65
2023/07/23 08:40:44;;;;;;;4.13;2.63;;;;;;;;;;4997618;28;20038;-65
2023/07/23 08:43:26;;;;;;;4.30;2.97;;;;;;;;;;4996946;28;20033;-65
2023/07/23 08:46:00;;;;;;;5.75;2.85;;;;;;;;;;4994207;28;20034;-65
2023/07/23 08:48:47;;;;;;;4.25;2.53;;;;;;;;;;4994760;28;20019;-65
2023/07/23 08:51:13;;;;;;;5.13;3.15;;;;;;;;;;5001494;28;20113;-65
2023/07/23 08:53:39;;;;;;;4.95;2.78;;;;;;;;;;5002893;28;20032;-65
2023/07/23 08:56:05;;;;;;;3.90;2.70;;;;;;;;;;4992522;28;20089;-65
2023/07/23 08:58:31;;;;;;;4.63;2.78;;;;;;;;;;4997198;28;20026;-65
2023/07/23 09:00:56;;;;;;;4.47;2.60;;;;;;;;;;4996646;28;20034;-65
2023/07/23 09:03:25;;;;;;;4.10;2.50;;;;;;;;;;4999447;28;20034;-65
2023/07/23 09:05:50;;;;;;;3.03;2.25;;;;;;;;;;4995999;28;20077;-65
2023/07/23 09:08:15;;;;;;;5.30;2.50;;;;;;;;;;5001613;28;20518;-65
2023/07/23 09:10:41;;;;;;;3.45;2.30;;;;;;;;;;4997401;28;20561;-65
2023/07/23 09:13:16;;;;;;;4.57;2.50;;;;;;;;;;4998360;28;20030;-65
2023/07/23 09:15:42;;;;;;;3.28;2.08;;;;;;;;;;4993280;28;20573;-65
2023/07/23 09:18:08;;;;;;;4.00;2.28;;;;;;;;;;4996856;28;20557;-64
2023/07/23 09:20:33;;;;;;;4.22;2.42;;;;;;;;;;4992889;28;20030;-64
2023/07/23 09:23:08;;;;;;;4.13;2.55;;;;;;;;;;4993046;28;20022;-65
2023/07/23 09:25:33;;;;;;;3.67;2.42;;;;;;;;;;4993222;28;20022;-65
2023/07/23 09:27:59;;;;;;;5.95;2.38;;;;;;;;;;4996657;28;20083;-65
2023/07/23 09:30:25;;;;;;;3.80;2.45;;;;;;;;;;4994193;28;20018;-65
2023/07/23 09:33:06;;;;;;;5.75;2.67;;;;;;;;;;4993132;28;20025;-65
2023/07/23 09:35:31;;;;;;;4.72;2.58;;;;;;;;;;5001047;28;20022;-65
2023/07/23 09:37:58;;;;;;;5.97;2.58;;;;;;;;;;4996609;28;20766;-65
2023/07/23 09:40:37;;;;;;;3.53;2.30;;;;;;;;;;4999974;28;20080;-65
2023/07/23 09:43:02;;;;;;;3.90;2.35;;;;;;;;;;4993889;28;20052;-65
2023/07/23 09:45:35;;;;;;;2.95;2.10;;;;;;;;;;4996502;28;20395;-65
2023/07/23 09:48:01;;;;;;;5.40;2.17;;;;;;;;;;4994442;28;20018;-65
2023/07/23 09:50:27;;;;;;;3.75;2.20;;;;;;;;;;4999562;28;20045;-64
2023/07/23 09:52:52;;;;;;;4.53;2.40;;;;;;;;;;4991554;28;20046;-64
2023/07/23 09:55:19;;;;;;;8.57;2.40;;;;;;;;;;4990071;28;20038;-65
2023/07/23 09:57:48;;;;;;;12.57;10.07;;;;;;;;;;4991217;28;20380;-64
2023/07/23 10:00:14;;;;;;;4.45;2.70;;;;;;;;;;4995145;28;20022;-64
2023/07/23 10:02:41;;;;;;;4.35;2.38;;;;;;;;;;4998460;28;20028;-66
2023/07/23 10:05:08;;;;;;;2.95;1.92;;;;;;;;;;4994240;28;20422;-65
2023/07/23 10:07:36;;;;;;;2.92;1.85;;;;;;;;;;4994559;28;20430;-65
2023/07/23 10:10:01;;;;;;;3.90;2.13;;;;;;;;;;4994136;28;20029;-65
2023/07/23 10:12:26;;;;;;;4.15;2.28;;;;;;;;;;4997626;28;20014;-65
2023/07/23 10:14:52;;;;;;;4.03;2.30;;;;;;;;;;4997134;28;20027;-65
2023/07/23 10:17:18;;;;;;;2.22;1.63;;;;;;;;;;4995578;28;20053;-64
2023/07/23 10:19:45;;;;;;;3.40;1.52;;;;;;;;;;4996219;28;20056;-65
2023/07/23 10:22:10;;;;;;;3.63;1.80;;;;;;;;;;4991369;28;20109;-64
2023/07/23 10:24:40;;;;;;;3.92;1.70;;;;;;;;;;4994713;28;20097;-65
2023/07/23 10:27:16;;;;;;;2.83;1.73;;;;;;;;;;4993642;28;20034;-65
2023/07/23 10:30:01;;;;;;;2.70;1.85;;;;;;;;;;4997769;28;20608;-65
2023/07/23 10:32:26;;;;;;;2.85;1.52;;;;;;;;;;4993461;28;20032;-65
2023/07/23 10:34:54;;;;;;;2.78;1.40;;;;;;;;;;4992407;28;20038;-65
2023/07/23 10:37:21;;;;;;;2.20;1.40;;;;;;;;;;4993088;28;20096;-65
2023/07/23 10:39:58;;;;;;;3.33;1.83;;;;;;;;;;4995840;28;20037;-65
2023/07/23 10:42:41;;;;;;;3.13;1.60;;;;;;;;;;4993106;28;20518;-64
2023/07/23 10:45:17;;;;;;;7.80;4.90;;;;;;;;;;4980499;28;20645;-65
2023/07/23 10:47:55;;;;;;;4.05;1.90;;;;;;;;;;4989416;28;20099;-65
2023/07/23 10:50:21;;;;;;;2.45;1.70;;;;;;;;;;4991027;28;20030;-65
2023/07/23 10:53:05;;;;;;;3.30;1.58;;;;;;;;;;4994855;28;20483;-65
2023/07/23 10:55:47;;;;;;;2.03;1.48;;;;;;;;;;4988825;28;20108;-65
2023/07/23 10:58:19;;;;;;;3.03;1.67;;;;;;;;;;4991962;28;20030;-64
2023/07/23 11:00:47;;;;;;;2.55;1.65;;;;;;;;;;4993616;28;20109;-65
2023/07/23 11:03:16;;;;;;;3.35;1.65;;;;;;;;;;4988393;28;20431;-65
2023/07/23 11:05:42;;;;;;;2.33;1.50;;;;;;;;;;4994645;28;20034;-65
2023/07/23 11:08:37;;;;;;;3.00;1.90;;;;;;;;;;4996106;28;20052;-65
2023/07/23 11:11:09;;;;;;;4.95;2.15;;;;;;;;;;4988168;28;20112;-65
2023/07/23 11:13:35;;;;;;;4.95;2.58;;;;;;;;;;4997771;28;20505;-65
2023/07/23 11:16:01;;;;;;;3.75;2.30;;;;;;;;;;4992816;28;20022;-65
2023/07/23 11:18:34;;;;;;;3.38;1.95;;;;;;;;;;4994955;28;20084;-65
2023/07/23 11:21:03;;;;;;;3.47;2.50;;;;;;;;;;4987938;28;20033;-65
2023/07/23 11:23:28;;;;;;;4.57;2.20;;;;;;;;;;4994445;28;20033;-65
2023/07/23 11:25:54;;;;;;;4.30;2.33;;;;;;;;;;4995885;28;20031;-65
2023/07/23 11:28:21;;;;;;;3.15;1.65;;;;;;;;;;4995948;28;20030;-65
2023/07/23 11:30:52;;;;;;;3.80;2.22;;;;;;;;;;4989623;28;20383;-65
2023/07/23 11:33:17;;;;;;;4.35;2.95;;;;;;;;;;4990659;28;20034;-65
2023/07/23 11:35:43;;;;;;;4.95;2.67;;;;;;;;;;4995699;28;20034;-65
2023/07/23 11:38:08;;;;;;;3.85;2.50;;;;;;;;;;4992378;28;20053;-65
2023/07/23 11:40:34;;;;;;;3.10;2.17;;;;;;;;;;4994587;28;20042;-65
2023/07/23 11:43:05;;;;;;;4.20;2.20;;;;;;;;;;4988737;28;20030;-65
2023/07/23 11:45:31;;;;;;;3.78;2.30;;;;;;;;;;4994557;28;20026;-65
2023/07/23 11:47:56;;;;;;;5.40;2.42;;;;;;;;;;4991252;28;20030;-65
2023/07/23 11:50:23;;;;;;;3.60;2.38;;;;;;;;;;4990524;28;20050;-65
2023/07/23 11:52:50;;;;;;;3.83;2.50;;;;;;;;;;4986682;28;20101;-65
2023/07/23 11:55:26;;;;;;;3.53;2.20;;;;;;;;;;4991125;28;20026;-65
2023/07/23 11:57:55;;;;;;;3.63;2.40;;;;;;;;;;4998613;28;20089;-65
2023/07/23 12:00:30;;;;;;;6.68;2.30;;;;;;;;;;4991849;28;20133;-65
2023/07/23 12:02:57;;;;;;;3.55;2.20;;;;;;;;;;4988654;28;20029;-65
2023/07/23 12:05:23;;;;;;;4.10;2.28;;;;;;;;;;4991692;28;20023;-65
2023/07/23 12:07:50;;;;;;;5.35;2.30;;;;;;;;;;4995798;28;20506;-68
2023/07/23 12:10:16;;;;;;;5.70;2.30;;;;;;;;;;4992782;28;20022;-67
2023/07/23 12:12:46;;;;;;;4.03;2.22;;;;;;;;;;4997056;28;20029;-67
2023/07/23 12:15:13;;;;;;;4.38;2.78;;;;;;;;;;4986705;28;20678;-67
2023/07/23 12:17:39;;;;;;;4.57;2.90;;;;;;;;;;4992215;28;20494;-68
2023/07/23 12:20:05;;;;;;;5.38;2.70;;;;;;;;;;4998627;28;20104;-68
2023/07/23 12:22:30;;;;;;;3.83;2.13;;;;;;;;;;5000986;28;20570;-67
2023/07/23 12:24:56;;;;;;;4.20;2.10;;;;;;;;;;5001197;28;20026;-68
2023/07/23 12:27:21;;;;;;;5.38;2.38;;;;;;;;;;4997773;28;20077;-68
2023/07/23 12:29:48;;;;;;;3.67;2.53;;;;;;;;;;4998724;28;20471;-68
2023/07/23 12:32:21;;;;;;;4.20;2.55;;;;;;;;;;4996706;28;20022;-68
2023/07/23 12:34:47;;;;;;;4.60;2.83;;;;;;;;;;4994211;28;20030;-68
2023/07/23 12:37:17;;;;;;;3.55;1.88;;;;;;;;;;4994228;28;20099;-68
2023/07/23 12:39:43;;;;;;;4.43;2.50;;;;;;;;;;4995717;28;20068;-68
2023/07/23 12:42:09;;;;;;;5.47;2.60;;;;;;;;;;4990405;28;20057;-68
2023/07/23 12:44:34;;;;;;;4.10;2.67;;;;;;;;;;4992698;28;20033;-68
2023/07/23 12:47:00;;;;;;;3.78;2.30;;;;;;;;;;4989251;28;20036;-67
2023/07/23 12:49:26;;;;;;;5.43;3.00;;;;;;;;;;4988278;28;20034;-67
2023/07/23 12:51:51;;;;;;;4.35;2.60;;;;;;;;;;4994259;28;20034;-67
2023/07/23 12:54:17;;;;;;;4.15;2.47;;;;;;;;;;4995014;28;20030;-65
2023/07/23 12:56:42;;;;;;;4.50;2.47;;;;;;;;;;4997143;28;20418;-66
2023/07/23 12:59:07;;;;;;;3.42;2.35;;;;;;;;;;4996380;28;20038;-66
2023/07/23 13:01:33;;;;;;;4.47;2.83;;;;;;;;;;4999275;28;20049;-66
2023/07/23 13:03:58;;;;;;;4.68;2.70;;;;;;;;;;4990538;28;20038;-66
2023/07/23 13:06:24;;;;;;;5.57;3.25;;;;;;;;;;4995876;28;20034;-67
2023/07/23 13:08:49;;;;;;;4.03;2.67;;;;;;;;;;5000336;28;20041;-66
2023/07/23 13:11:15;;;;;;;4.00;2.42;;;;;;;;;;4999263;28;20599;-66
2023/07/23 13:13:40;;;;;;;5.72;2.90;;;;;;;;;;4996826;28;20026;-66
2023/07/23 13:16:06;;;;;;;6.10;2.72;;;;;;;;;;4991691;28;20041;-66
2023/07/23 13:18:31;;;;;;;3.75;2.10;;;;;;;;;;4990206;28;20141;-65
2023/07/23 13:20:57;;;;;;;5.03;2.20;;;;;;;;;;4998168;28;20033;-66
2023/07/23 13:23:22;;;;;;;4.65;2.80;;;;;;;;;;5000566;28;20104;-65
2023/07/23 13:25:50;;;;;;;4.00;2.40;;;;;;;;;;4997940;28;20057;-67
2023/07/23 13:28:15;;;;;;;3.92;2.13;;;;;;;;;;4996772;28;20029;-67
2023/07/23 13:30:40;;;;;;;3.58;2.53;;;;;;;;;;4995440;28;20026;-64
2023/07/23 13:33:06;;;;;;;4.95;2.50;;;;;;;;;;4994894;28;20033;-66
2023/07/23 13:35:32;;;;;;;4.30;2.47;;;;;;;;;;5001040;28;20097;-64
2023/07/23 13:37:57;;;;;;;3.40;1.85;;;;;;;;;;4997714;28;20034;-64
2023/07/23 13:40:22;;;;;;;3.85;2.28;;;;;;;;;;4996554;28;20030;-69
2023/07/23 13:42:48;;;;;;;4.28;2.28;;;;;;;;;;4999563;28;20030;-67
2023/07/23 13:45:13;;;;;;;3.58;1.92;;;;;;;;;;4998894;28;20038;-68
2023/07/23 13:47:39;;;;;;;4.00;2.22;;;;;;;;;;4997515;28;20104;-69
2023/07/23 13:50:05;;;;;;;4.07;2.05;;;;;;;;;;4993113;28;20056;-67
2023/07/23 13:52:30;;;;;;;3.97;2.30;;;;;;;;;;4999392;28;20045;-68
2023/07/23 13:54:55;;;;;;;3.40;2.17;;;;;;;;;;4997650;28;20034;-68
2023/07/23 13:57:21;;;;;;;3.53;2.10;;;;;;;;;;4998112;28;20538;-68
2023/07/23 13:59:46;;;;;;;3.58;2.05;;;;;;;;;;4996679;28;20026;-68
2023/07/23 14:02:12;;;;;;;3.30;1.88;;;;;;;;;;4994343;28;20036;-67
2023/07/23 14:04:37;;;;;;;2.72;1.50;;;;;;;;;;4998822;28;20017;-69
2023/07/23 14:07:03;;;;;;;2.53;1.83;;;;;;;;;;4996228;28;20073;-68
2023/07/23 14:09:28;;;;;;;4.80;1.90;;;;;;;;;;5000322;28;20035;-66
2023/07/23 14:11:54;;;;;;;2.80;1.83;;;;;;;;;;4996013;28;20096;-66
2023/07/23 14:14:19;;;;;;;2.78;2.05;;;;;;;;;;5000338;28;20030;-66
2023/07/23 14:16:44;;;;;;;3.58;2.20;;;;;;;;;;4993187;28;20403;-69
2023/07/23 14:19:10;;;;;;;4.35;1.88;;;;;;;;;;4995728;28;20034;-66
2023/07/23 14:21:36;;;;;;;3.47;1.63;;;;;;;;;;4995786;28;20359;-66
2023/07/23 14:24:01;;;;;;;2.78;1.63;;;;;;;;;;4999509;28;20025;-68
2023/07/23 14:26:27;;;;;;;3.92;1.48;;;;;;;;;;4993901;28;20068;-67
2023/07/23 14:28:52;;;;;;;2.65;1.58;;;;;;;;;;4992666;28;20026;-66
2023/07/23 14:31:18;;;;;;;3.08;1.80;;;;;;;;;;4992119;28;20402;-69
2023/07/23 14:33:44;;;;;;;2.05;1.30;;;;;;;;;;4989927;28;20443;-68
2023/07/23 14:36:09;;;;;;;2.38;1.40;;;;;;;;;;4994919;28;20026;-67
2023/07/23 14:38:36;;;;;;;2.47;1.40;;;;;;;;;;4999134;28;20465;-66